createdAt,value
2022-11-22T00:01:25.998Z,11.60
2022-11-22T00:03:54.646Z,12.57
2022-11-22T00:06:23.249Z,11.85
2022-11-22T00:08:51.844Z,11.93
2022-11-22T00:11:20.760Z,11.35
2022-11-22T00:13:49.380Z,11.02
2022-11-22T00:16:17.958Z,11.77
2022-11-22T00:18:47.972Z,12.73
2022-11-22T00:21:16.577Z,11.57
2022-11-22T00:23:45.148Z,12.23
2022-11-22T00:26:13.802Z,11.60
2022-11-22T00:28:42.345Z,12.00
2022-11-22T00:31:10.971Z,12.48
2022-11-22T00:33:39.537Z,11.50
2022-11-22T00:36:09.559Z,11.70
2022-11-22T00:38:38.164Z,11.48
2022-11-22T00:41:06.768Z,11.80
2022-11-22T00:43:35.336Z,11.60
2022-11-22T00:46:03.927Z,11.38
2022-11-22T00:48:32.568Z,11.52
2022-11-22T00:51:01.208Z,11.90
2022-11-22T00:53:31.107Z,13.20
2022-11-22T00:55:59.692Z,12.25
2022-11-22T00:58:28.278Z,14.35
2022-11-22T01:00:57.192Z,11.55
2022-11-22T01:03:25.797Z,12.90
2022-11-22T01:05:54.423Z,13.45
2022-11-22T01:08:23.021Z,13.45
2022-11-22T01:10:57.215Z,11.73
2022-11-22T01:13:25.783Z,12.60
2022-11-22T01:15:54.424Z,13.43
2022-11-22T01:18:23.026Z,13.25
2022-11-22T01:20:51.600Z,12.80
2022-11-22T01:23:20.173Z,13.18
2022-11-22T01:25:48.790Z,13.77
2022-11-22T01:28:18.932Z,13.50
2022-11-22T01:30:47.650Z,12.27
2022-11-22T01:33:16.210Z,12.90
2022-11-22T01:35:44.773Z,13.60
2022-11-22T01:38:13.480Z,13.00
2022-11-22T01:40:42.109Z,13.18
2022-11-22T01:43:15.498Z,12.40
2022-11-22T01:45:53.105Z,13.35
2022-11-22T01:48:34.022Z,13.50
2022-11-22T01:51:04.593Z,12.85
2022-11-22T01:53:34.807Z,12.05
2022-11-22T01:56:03.827Z,13.55
2022-11-22T01:58:33.387Z,13.13
2022-11-22T02:01:03.401Z,13.38
2022-11-22T02:03:32.518Z,12.55
2022-11-22T02:06:01.123Z,13.25
2022-11-22T02:08:32.437Z,13.98
2022-11-22T02:11:02.684Z,14.57
2022-11-22T02:13:31.780Z,12.93
2022-11-22T02:16:00.537Z,14.02
2022-11-22T02:18:30.655Z,13.93
2022-11-22T02:21:00.007Z,12.85
2022-11-22T02:23:33.000Z,13.07
2022-11-22T02:26:03.766Z,14.20
2022-11-22T02:28:33.339Z,12.45
2022-11-22T02:31:01.915Z,14.05
2022-11-22T02:33:30.483Z,14.15
2022-11-22T02:35:59.113Z,14.50
2022-11-22T02:38:28.366Z,13.73
2022-11-22T02:41:05.052Z,13.20
2022-11-22T02:43:34.894Z,13.93
2022-11-22T02:46:06.974Z,13.85
2022-11-22T02:48:35.926Z,13.50
2022-11-22T02:51:04.582Z,14.13
2022-11-22T02:53:33.177Z,13.43
2022-11-22T02:56:01.795Z,15.60
2022-11-22T02:58:31.748Z,13.48
2022-11-22T03:01:00.389Z,12.82
2022-11-22T03:03:29.048Z,13.38
2022-11-22T03:05:57.691Z,13.73
2022-11-22T03:08:26.380Z,14.25
2022-11-22T03:10:54.992Z,13.52
2022-11-22T03:13:23.586Z,13.40
2022-11-22T03:15:53.592Z,14.05
2022-11-22T03:18:22.262Z,14.73
2022-11-22T03:20:50.805Z,13.60
2022-11-22T03:23:19.402Z,13.80
2022-11-22T03:25:48.050Z,13.05
2022-11-22T03:28:16.642Z,14.45
2022-11-22T03:30:45.312Z,15.80
2022-11-22T03:33:15.309Z,13.43
2022-11-22T03:35:44.577Z,13.98
2022-11-22T03:38:13.166Z,13.38
2022-11-22T03:40:41.981Z,14.73
2022-11-22T03:43:10.612Z,15.27
2022-11-22T03:45:39.569Z,14.68
2022-11-22T03:48:08.203Z,14.60
2022-11-22T03:50:38.819Z,15.18
2022-11-22T03:53:07.422Z,15.68
2022-11-22T03:55:36.088Z,13.80
2022-11-22T03:58:04.717Z,14.70
2022-11-22T04:00:33.514Z,15.00
2022-11-22T04:03:02.918Z,14.35
2022-11-22T04:05:31.533Z,14.23
2022-11-22T04:08:01.623Z,14.57
2022-11-22T04:10:30.259Z,15.13
2022-11-22T04:12:59.311Z,17.08
2022-11-22T04:15:26.883Z,15.38
2022-11-22T04:17:55.441Z,15.00
2022-11-22T04:20:44.373Z,16.67
2022-11-22T04:23:15.146Z,16.20
2022-11-22T04:25:43.473Z,17.20
2022-11-22T04:28:12.488Z,17.98
2022-11-22T04:30:58.534Z,17.23
2022-11-22T04:33:27.424Z,18.77
2022-11-22T04:35:56.241Z,16.42
2022-11-22T04:38:26.623Z,15.68
2022-11-22T04:40:55.289Z,16.88
2022-11-22T04:43:41.869Z,17.35
2022-11-22T04:46:10.510Z,17.23
2022-11-22T04:48:39.086Z,16.88
2022-11-22T04:51:25.661Z,17.50
2022-11-22T04:53:55.603Z,17.85
2022-11-22T04:56:24.195Z,18.27
2022-11-22T04:58:52.782Z,17.58
2022-11-22T05:01:21.476Z,19.15
2022-11-22T05:03:50.152Z,19.52
2022-11-22T05:06:18.748Z,18.70
2022-11-22T05:08:47.347Z,19.27
2022-11-22T05:11:17.319Z,18.10
2022-11-22T05:13:45.900Z,18.67
2022-11-22T05:16:15.129Z,20.25
2022-11-22T05:18:43.734Z,18.83
2022-11-22T05:21:13.775Z,18.10
2022-11-22T05:23:56.254Z,18.08
2022-11-22T05:26:27.150Z,20.15
2022-11-22T05:28:56.884Z,18.65
2022-11-22T05:31:27.265Z,18.63
2022-11-22T05:33:56.705Z,19.60
2022-11-22T05:36:25.918Z,23.45
2022-11-22T05:38:54.811Z,23.60
2022-11-22T05:41:23.456Z,19.45
2022-11-22T05:43:54.840Z,19.98
2022-11-22T05:46:25.265Z,21.17
2022-11-22T05:48:54.444Z,17.05
2022-11-22T05:51:25.244Z,18.00
2022-11-22T05:53:56.630Z,18.30
2022-11-22T05:56:25.644Z,18.75
2022-11-22T05:58:55.659Z,20.00
2022-11-22T06:01:24.846Z,20.25
2022-11-22T06:03:53.824Z,19.60
2022-11-22T06:06:22.520Z,18.30
2022-11-22T06:08:51.655Z,18.25
2022-11-22T06:11:20.950Z,20.02
2022-11-22T06:13:50.677Z,19.30
2022-11-22T06:16:20.659Z,17.23
2022-11-22T06:18:49.431Z,18.52
2022-11-22T06:21:19.311Z,20.02
2022-11-22T06:23:47.934Z,19.42
2022-11-22T06:26:17.620Z,19.40
2022-11-22T06:28:46.349Z,19.00
2022-11-22T06:31:15.930Z,20.10
2022-11-22T06:33:46.184Z,19.48
2022-11-22T06:36:15.863Z,19.63
2022-11-22T06:38:45.937Z,19.30
2022-11-22T06:41:15.439Z,19.10
2022-11-22T06:43:48.740Z,18.50
2022-11-22T06:46:18.255Z,17.60
2022-11-22T06:48:48.238Z,19.25
2022-11-22T06:51:19.623Z,19.08
2022-11-22T06:53:49.374Z,17.00
2022-11-22T06:56:19.733Z,16.75
2022-11-22T06:58:48.460Z,19.90
2022-11-22T07:01:18.550Z,17.17
2022-11-22T07:03:48.768Z,18.13
2022-11-22T07:06:18.687Z,17.92
2022-11-22T07:08:47.418Z,18.63
2022-11-22T07:11:16.967Z,17.52
2022-11-22T07:13:45.642Z,19.02
2022-11-22T07:16:15.393Z,17.63
2022-11-22T07:18:44.190Z,18.20
2022-11-22T07:21:15.335Z,17.85
2022-11-22T07:23:44.726Z,16.33
2022-11-22T07:26:13.766Z,16.50
2022-11-22T07:28:42.411Z,17.55
2022-11-22T07:31:11.804Z,18.00
2022-11-22T07:33:40.429Z,17.50
2022-11-22T07:36:09.832Z,16.23
2022-11-22T07:38:39.862Z,17.55
2022-11-22T07:41:08.539Z,17.67
2022-11-22T07:43:37.229Z,19.17
2022-11-22T07:46:06.642Z,19.40
2022-11-22T07:48:35.367Z,19.42
2022-11-22T07:51:07.147Z,17.80
2022-11-22T07:53:35.949Z,18.73
2022-11-22T07:56:06.239Z,18.45
2022-11-22T07:58:34.942Z,20.65
2022-11-22T08:01:07.470Z,18.38
2022-11-22T08:03:36.398Z,20.05
2022-11-22T08:06:06.005Z,18.77
2022-11-22T08:08:34.663Z,16.63
2022-11-22T08:11:03.265Z,18.13
2022-11-22T08:13:33.251Z,19.58
2022-11-22T08:16:05.596Z,17.92
2022-11-22T08:18:34.891Z,20.17
2022-11-22T08:21:07.340Z,18.63
2022-11-22T08:23:35.976Z,20.00
2022-11-22T08:26:04.884Z,19.23
2022-11-22T08:28:34.823Z,19.02
2022-11-22T08:31:04.489Z,19.65
2022-11-22T08:33:33.134Z,20.25
2022-11-22T08:36:01.811Z,20.55
2022-11-22T08:38:30.500Z,19.95
2022-11-22T08:40:59.052Z,19.85
2022-11-22T08:43:27.782Z,19.00
2022-11-22T08:45:58.294Z,19.70
2022-11-22T08:48:27.368Z,20.80
2022-11-22T08:50:56.823Z,21.25
2022-11-22T08:53:25.434Z,18.27
2022-11-22T08:55:54.163Z,20.45
2022-11-22T08:58:22.824Z,21.50
2022-11-22T09:00:51.388Z,20.33
2022-11-22T09:03:21.364Z,20.55
2022-11-22T09:08:40.441Z,20.45
2022-11-22T09:11:13.296Z,19.05
2022-11-22T09:13:41.908Z,18.75
2022-11-22T09:16:11.594Z,19.25
2022-11-22T09:18:41.676Z,19.20
2022-11-22T09:21:11.108Z,19.45
2022-11-22T09:23:39.697Z,20.95
2022-11-22T09:26:09.794Z,16.77
2022-11-22T09:28:38.365Z,18.55
2022-11-22T09:31:07.793Z,19.52
2022-11-22T09:33:37.158Z,19.75
2022-11-22T09:36:08.058Z,18.63
2022-11-22T09:38:36.836Z,19.23
2022-11-22T09:41:12.582Z,20.02
2022-11-22T09:43:43.244Z,20.48
2022-11-22T09:46:23.589Z,19.73
2022-11-22T09:49:00.341Z,17.70
2022-11-22T09:51:33.980Z,20.55
2022-11-22T09:54:05.541Z,18.67
2022-11-22T09:56:34.539Z,18.77
2022-11-22T09:59:05.925Z,19.08
2022-11-22T10:01:39.220Z,20.00
2022-11-22T10:04:09.447Z,19.98
2022-11-22T10:06:41.485Z,21.55
2022-11-22T10:09:26.517Z,20.70
2022-11-22T10:11:57.355Z,18.92
2022-11-22T10:14:30.971Z,19.08
2022-11-22T10:17:01.357Z,21.17
2022-11-22T10:19:31.421Z,21.50
2022-11-22T10:22:01.532Z,24.25
2022-11-22T10:24:30.128Z,22.27
2022-11-22T10:26:58.768Z,21.25
2022-11-22T10:29:31.214Z,20.05
2022-11-22T10:32:04.705Z,20.15
2022-11-22T10:34:42.032Z,18.25
2022-11-22T10:37:15.463Z,19.92
2022-11-22T10:39:59.539Z,19.15
2022-11-22T10:42:35.302Z,18.75
2022-11-22T10:45:06.579Z,18.38
2022-11-22T10:47:53.814Z,18.30
2022-11-22T10:50:24.412Z,18.23
2022-11-22T10:53:00.999Z,19.17
2022-11-22T10:55:42.409Z,18.92
2022-11-22T10:58:15.232Z,19.88
2022-11-22T11:00:45.318Z,16.95
2022-11-22T11:03:29.065Z,18.35
2022-11-22T11:06:22.641Z,19.38
2022-11-22T11:09:47.923Z,19.20
2022-11-22T11:11:41.222Z,19.20
2022-11-22T11:14:13.397Z,17.35
2022-11-22T11:16:41.969Z,18.13
2022-11-22T11:19:16.872Z,17.15
2022-11-22T11:21:45.621Z,19.33
2022-11-22T11:24:16.709Z,17.58
2022-11-22T11:26:45.689Z,17.42
2022-11-22T11:29:43.631Z,17.38
2022-11-22T11:32:14.292Z,18.05
2022-11-22T11:34:45.890Z,17.23
2022-11-22T11:37:28.495Z,20.08
2022-11-22T11:39:58.389Z,17.67
2022-11-22T11:42:30.557Z,19.23
2022-11-22T11:45:21.775Z,22.40
2022-11-22T11:47:50.316Z,30.47
2022-11-22T11:50:24.028Z,30.45
2022-11-22T11:52:53.976Z,21.45
2022-11-22T11:55:24.852Z,22.75
2022-11-22T11:57:53.609Z,18.33
2022-11-22T12:00:25.797Z,19.50
2022-11-22T12:02:58.637Z,19.52
2022-11-22T12:05:29.177Z,18.02
2022-11-22T12:07:57.848Z,19.50
2022-11-22T12:10:33.387Z,18.42
2022-11-22T12:13:04.900Z,19.70
2022-11-22T12:15:42.387Z,19.48
2022-11-22T12:18:19.113Z,18.20
2022-11-22T12:20:50.874Z,18.88
2022-11-22T12:23:21.912Z,17.85
2022-11-22T12:25:51.967Z,18.48
2022-11-22T12:28:21.503Z,17.65
2022-11-22T12:30:53.161Z,19.70
2022-11-22T12:33:24.939Z,17.80
2022-11-22T12:35:53.526Z,18.75
2022-11-22T12:38:23.940Z,20.38
2022-11-22T12:40:55.487Z,19.08
2022-11-22T12:43:25.422Z,19.23
2022-11-22T12:45:54.516Z,17.73
2022-11-22T12:48:24.414Z,18.95
2022-11-22T12:50:54.547Z,18.85
2022-11-22T12:53:24.301Z,20.60
2022-11-22T12:55:58.994Z,18.60
2022-11-22T12:58:31.874Z,19.60
2022-11-22T13:01:06.221Z,18.17
2022-11-22T13:03:37.877Z,19.33
2022-11-22T13:06:07.364Z,19.42
2022-11-22T13:08:39.056Z,18.25
2022-11-22T13:11:14.940Z,17.40
2022-11-22T13:13:44.957Z,22.48
2022-11-22T13:16:13.673Z,25.20
2022-11-22T13:18:44.199Z,23.63
2022-11-22T13:21:16.853Z,17.80
2022-11-22T13:24:02.657Z,19.77
2022-11-22T13:26:35.688Z,18.27
2022-11-22T13:29:10.730Z,20.15
2022-11-22T13:31:41.069Z,18.60
2022-11-22T13:34:23.456Z,19.02
2022-11-22T13:36:52.086Z,19.30
2022-11-22T13:39:22.017Z,19.07
2022-11-22T13:42:02.586Z,21.65
2022-11-22T13:44:50.816Z,19.52
2022-11-22T13:47:42.482Z,21.77
2022-11-22T13:50:54.068Z,18.77
2022-11-22T13:53:28.884Z,20.55
2022-11-22T13:55:58.708Z,21.53
2022-11-22T13:59:05.989Z,19.48
2022-11-22T14:01:59.014Z,20.75
2022-11-22T14:04:48.302Z,18.95
2022-11-22T14:07:38.504Z,18.98
2022-11-22T14:10:26.757Z,18.40
2022-11-22T14:13:21.353Z,19.17
2022-11-22T14:16:02.285Z,19.93
2022-11-22T14:18:53.438Z,21.00
2022-11-22T14:21:30.101Z,21.95
2022-11-22T14:24:02.637Z,23.30
2022-11-22T14:26:34.618Z,23.60
2022-11-22T14:29:53.961Z,22.63
2022-11-22T14:32:24.824Z,20.90
2022-11-22T14:35:35.537Z,20.92
2022-11-22T14:38:29.910Z,23.10
2022-11-22T14:41:37.657Z,23.20
2022-11-22T14:44:06.573Z,24.00
2022-11-22T14:46:52.828Z,22.50
2022-11-22T14:49:28.119Z,20.52
2022-11-22T14:51:57.513Z,22.52
2022-11-22T14:54:28.273Z,20.55
2022-11-22T14:57:02.714Z,18.85
2022-11-22T15:00:03.022Z,20.02
2022-11-22T15:03:02.774Z,20.73
2022-11-22T15:09:16.274Z,20.95
2022-11-22T15:09:18.822Z,21.02
2022-11-22T15:11:34.573Z,19.95
2022-11-22T15:14:33.137Z,20.08
2022-11-22T15:57:26.594Z,25.05
2022-11-22T15:59:55.601Z,23.92
2022-11-22T16:02:25.883Z,21.63
2022-11-22T16:06:08.095Z,24.70
2022-11-22T16:07:48.161Z,22.85
2022-11-22T16:10:20.193Z,22.25
2022-11-22T16:12:51.226Z,22.23
2022-11-22T16:15:31.026Z,21.27
2022-11-22T16:18:13.501Z,22.45
2022-11-22T16:20:42.569Z,23.80
2022-11-22T16:23:16.437Z,22.98
2022-11-22T16:25:45.558Z,21.80
2022-11-22T16:28:34.964Z,21.75
2022-11-22T16:31:05.458Z,22.75
2022-11-22T16:33:34.060Z,95.90
2022-11-22T16:36:02.971Z,26.70
2022-11-22T16:38:31.584Z,38.13
2022-11-22T16:41:00.337Z,28.88
2022-11-22T16:43:34.649Z,50.80
2022-11-22T16:46:04.609Z,78.88
2022-11-22T16:48:33.751Z,61.75
2022-11-22T16:51:04.985Z,24.60
2022-11-22T16:53:39.265Z,24.92
2022-11-22T16:56:08.235Z,25.75
2022-11-22T16:58:36.901Z,23.92
2022-11-22T17:01:07.449Z,21.10
2022-11-22T17:03:36.284Z,23.98
2022-11-22T17:06:04.951Z,23.23
2022-11-22T17:08:33.540Z,25.20
2022-11-22T17:11:02.080Z,22.08
2022-11-22T17:13:30.670Z,26.60
2022-11-22T17:15:59.289Z,48.80
2022-11-22T17:18:29.223Z,27.98
2022-11-22T17:20:57.828Z,29.75
2022-11-22T17:23:28.024Z,26.07
2022-11-22T17:25:57.123Z,29.77
2022-11-22T17:28:25.729Z,27.67
2022-11-22T17:30:54.393Z,27.38
2022-11-22T17:33:24.876Z,32.60
2022-11-22T17:35:54.859Z,28.45
2022-11-22T17:38:23.467Z,26.48
2022-11-22T17:40:59.113Z,24.27
2022-11-22T17:43:27.756Z,21.73
2022-11-22T17:45:56.364Z,22.88
2022-11-22T17:48:24.933Z,23.25
2022-11-22T17:50:54.877Z,22.30
2022-11-22T17:53:23.469Z,24.50
2022-11-22T17:56:10.052Z,24.58
2022-11-22T17:58:39.347Z,23.73
2022-11-22T18:01:08.611Z,24.40
2022-11-22T18:03:37.282Z,24.20
2022-11-22T18:06:07.679Z,24.42
2022-11-22T18:08:36.359Z,25.60
2022-11-22T18:11:05.609Z,26.17
2022-11-22T18:13:36.950Z,23.08
2022-11-22T18:16:07.764Z,22.02
2022-11-22T18:21:29.100Z,23.13
2022-11-22T18:23:58.756Z,25.30
2022-11-22T18:26:43.015Z,26.42
2022-11-22T18:29:41.741Z,22.92
2022-11-22T18:32:00.976Z,24.00
2022-11-22T18:34:29.673Z,23.80
2022-11-22T18:37:02.517Z,20.95
2022-11-22T18:39:33.339Z,23.55
2022-11-22T18:42:02.329Z,26.45
2022-11-22T18:44:30.951Z,63.05
2022-11-22T18:46:59.523Z,28.88
2022-11-22T18:49:28.214Z,25.05
2022-11-22T18:51:58.188Z,23.48
2022-11-22T18:54:26.827Z,23.95
2022-11-22T18:56:55.401Z,23.13
2022-11-22T18:59:23.973Z,21.98
2022-11-22T19:01:52.632Z,23.75
2022-11-22T19:04:21.176Z,22.30
2022-11-22T19:06:49.783Z,25.70
2022-11-22T19:09:19.689Z,25.10
2022-11-22T19:11:48.301Z,27.95
2022-11-22T19:14:17.045Z,26.35
2022-11-22T19:16:45.666Z,32.05
2022-11-22T19:19:14.375Z,23.30
2022-11-22T19:21:42.997Z,24.30
2022-11-22T19:24:12.007Z,22.52
2022-11-22T19:26:42.018Z,23.90
2022-11-22T19:29:10.741Z,23.73
2022-11-22T19:31:39.325Z,21.92
2022-11-22T19:34:07.981Z,26.98
2022-11-22T19:36:37.975Z,23.40
2022-11-22T19:39:06.986Z,23.67
2022-11-22T19:41:35.644Z,21.45
2022-11-22T19:44:05.787Z,21.40
2022-11-22T19:46:34.531Z,21.48
2022-11-22T19:49:03.511Z,23.17
2022-11-22T19:51:32.669Z,21.33
2022-11-22T19:54:02.188Z,24.77
2022-11-22T19:56:32.124Z,22.95
2022-11-22T19:59:01.612Z,22.33
2022-11-22T20:01:32.278Z,24.03
2022-11-22T20:04:02.139Z,24.25
2022-11-22T20:06:30.995Z,24.73
2022-11-22T20:09:04.148Z,23.25
2022-11-22T20:11:32.754Z,23.05
2022-11-22T20:14:01.295Z,23.63
2022-11-22T20:16:31.651Z,23.02
2022-11-22T20:19:00.806Z,24.42
2022-11-22T20:21:30.815Z,22.95
2022-11-22T20:24:00.245Z,25.35
2022-11-22T20:26:28.972Z,24.17
2022-11-22T20:28:58.380Z,22.95
2022-11-22T20:31:27.584Z,25.10
2022-11-22T20:33:57.601Z,25.63
2022-11-22T20:36:26.894Z,25.20
2022-11-22T20:38:55.661Z,22.67
2022-11-22T20:41:25.544Z,23.48
2022-11-22T20:43:54.199Z,24.25
2022-11-22T20:46:23.506Z,23.40
2022-11-22T20:48:53.042Z,26.38
2022-11-22T20:51:23.927Z,23.20
2022-11-22T20:53:52.753Z,23.35
2022-11-22T20:56:21.401Z,24.33
2022-11-22T20:58:50.110Z,24.45
2022-11-22T21:01:19.674Z,23.00
2022-11-22T21:03:48.591Z,25.13
2022-11-22T21:06:17.749Z,24.45
2022-11-22T21:08:47.832Z,23.63
2022-11-22T21:11:18.282Z,23.60
2022-11-22T21:13:47.220Z,25.30
2022-11-22T21:16:23.265Z,24.15
2022-11-22T21:18:53.576Z,28.05
2022-11-22T21:21:23.943Z,22.20
2022-11-22T21:23:55.023Z,22.77
2022-11-22T21:26:23.978Z,22.50
2022-11-22T21:28:52.965Z,24.45
2022-11-22T21:31:21.802Z,23.77
2022-11-22T21:33:50.359Z,24.83
2022-11-22T21:36:19.211Z,24.30
2022-11-22T21:38:47.922Z,25.33
2022-11-22T21:44:07.700Z,26.23
2022-11-22T21:46:36.394Z,25.15
2022-11-22T21:49:05.236Z,24.95
2022-11-22T21:51:33.830Z,23.20
2022-11-22T21:54:02.732Z,24.02
2022-11-22T21:56:32.781Z,23.08
2022-11-22T21:59:02.217Z,21.70
2022-11-22T22:01:30.812Z,22.90
2022-11-22T22:03:59.504Z,24.48
2022-11-22T22:06:28.130Z,22.88
2022-11-22T22:08:56.813Z,24.05
2022-11-22T22:11:25.405Z,22.90
2022-11-22T22:13:55.674Z,23.13
2022-11-22T22:16:26.021Z,22.10
2022-11-22T22:18:55.060Z,23.23
2022-11-22T22:21:23.629Z,23.90
2022-11-22T22:23:53.466Z,25.15
2022-11-22T22:26:22.327Z,22.70
2022-11-22T22:28:50.924Z,22.75
2022-11-22T22:31:22.748Z,23.35
2022-11-22T22:33:52.578Z,24.60
2022-11-22T22:36:21.287Z,24.17
2022-11-22T22:38:49.958Z,24.25
2022-11-22T22:41:18.700Z,22.92
2022-11-22T22:43:49.082Z,27.83
2022-11-22T22:46:18.682Z,25.00
2022-11-22T22:48:48.819Z,24.98
2022-11-22T22:51:18.008Z,23.25
2022-11-22T22:53:46.695Z,26.63
2022-11-22T22:56:16.081Z,26.52
2022-11-22T22:58:44.667Z,28.25
2022-11-22T23:01:14.851Z,27.15
2022-11-22T23:03:43.523Z,25.23
2022-11-22T23:06:13.695Z,24.40
2022-11-22T23:08:43.538Z,21.98
2022-11-22T23:11:12.801Z,21.58
2022-11-22T23:13:42.260Z,22.75
2022-11-22T23:16:11.942Z,23.40
2022-11-22T23:18:41.255Z,23.13
2022-11-22T23:21:12.804Z,22.67
2022-11-22T23:23:41.657Z,21.88
2022-11-22T23:26:11.011Z,24.10
2022-11-22T23:28:39.624Z,22.10
2022-11-22T23:31:08.770Z,25.88
2022-11-22T23:33:37.964Z,25.23
2022-11-22T23:36:07.329Z,23.25
2022-11-22T23:38:38.289Z,24.02
2022-11-22T23:41:07.125Z,22.98
2022-11-22T23:43:35.747Z,23.15
2022-11-22T23:46:04.397Z,23.25
2022-11-22T23:48:33.014Z,21.50
2022-11-22T23:51:05.306Z,23.48
2022-11-22T23:53:33.972Z,22.35
2022-11-22T23:56:08.105Z,22.38
2022-11-22T23:58:36.895Z,22.17
